createdAt,value
2023-03-16T00:00:13.870Z,96710.44
2023-03-16T00:02:44.327Z,96712.25
2023-03-16T00:05:14.362Z,96714.16
2023-03-16T00:07:43.504Z,96716.25
2023-03-16T00:10:13.869Z,96706.13
2023-03-16T00:12:43.778Z,96710.56
2023-03-16T00:15:12.576Z,96710.69
2023-03-16T00:17:40.962Z,96705.16
2023-03-16T00:20:12.364Z,96701.84
2023-03-16T00:22:41.932Z,96708.66
2023-03-16T00:25:10.986Z,96709.75
2023-03-16T00:27:39.793Z,96705.41
2023-03-16T00:30:09.240Z,96707.38
2023-03-16T00:32:38.673Z,96718.34
2023-03-16T00:35:09.564Z,96716.88
2023-03-16T00:37:39.930Z,96721.19
2023-03-16T00:40:11.465Z,96720.47
2023-03-16T00:42:39.769Z,96713.97
2023-03-16T00:45:09.344Z,96719.19
2023-03-16T00:47:37.540Z,96724.03
2023-03-16T00:50:06.475Z,96716.38
2023-03-16T00:52:35.380Z,96726.34
2023-03-16T00:55:05.514Z,96725.38
2023-03-16T00:57:34.258Z,96724.81
2023-03-16T01:00:12.379Z,96723.72
2023-03-16T01:02:40.638Z,96717.72
2023-03-16T01:05:10.024Z,96724.22
2023-03-16T01:07:38.220Z,96726.16
2023-03-16T01:10:09.675Z,96721.41
2023-03-16T01:12:37.995Z,96723.72
2023-03-16T01:15:07.155Z,96719.69
2023-03-16T01:17:35.508Z,96725.38
2023-03-16T01:20:08.098Z,96722.16
2023-03-16T01:22:36.403Z,96720.88
2023-03-16T01:25:05.674Z,96722.50
2023-03-16T01:27:35.266Z,96723.28
2023-03-16T01:30:03.762Z,96721.16
2023-03-16T01:32:32.098Z,96717.13
2023-03-16T01:35:00.330Z,96713.34
2023-03-16T01:37:28.579Z,96712.03
2023-03-16T01:39:56.879Z,96712.44
2023-03-16T01:42:25.125Z,96709.31
2023-03-16T01:44:57.142Z,96701.03
2023-03-16T01:47:25.361Z,96708.25
2023-03-16T01:49:56.733Z,96699.09
2023-03-16T01:52:27.148Z,96707.91
2023-03-16T01:54:57.762Z,96700.44
2023-03-16T01:57:26.892Z,96697.97
2023-03-16T01:59:59.222Z,96691.47
2023-03-16T02:02:32.044Z,96695.47
2023-03-16T02:05:03.955Z,96693.16
2023-03-16T02:07:36.245Z,96708.34
2023-03-16T02:10:05.993Z,96705.03
2023-03-16T02:12:34.598Z,96698.13
2023-03-16T02:15:05.274Z,96697.38
2023-03-16T02:17:35.913Z,96700.75
2023-03-16T02:20:10.925Z,96701.81
2023-03-16T02:22:42.175Z,96708.03
2023-03-16T02:25:11.335Z,96702.88
2023-03-16T02:27:44.381Z,96704.94
2023-03-16T02:30:15.422Z,96709.75
2023-03-16T02:32:44.435Z,96704.00
2023-03-16T02:35:13.164Z,96707.47
2023-03-16T02:37:41.842Z,96699.81
2023-03-16T02:40:22.310Z,96702.59
2023-03-16T02:42:54.715Z,96701.75
2023-03-16T02:45:26.108Z,96691.59
2023-03-16T02:47:54.919Z,96694.22
2023-03-16T02:50:23.164Z,96690.06
2023-03-16T02:52:52.356Z,96691.16
2023-03-16T02:55:21.740Z,96696.25
2023-03-16T02:57:50.244Z,96688.75
2023-03-16T03:00:19.449Z,96694.97
2023-03-16T03:02:49.074Z,96691.88
2023-03-16T03:05:17.479Z,96691.03
2023-03-16T03:07:45.687Z,96692.97
2023-03-16T03:10:17.146Z,96693.22
2023-03-16T03:12:49.312Z,96694.28
2023-03-16T03:15:18.302Z,96693.19
2023-03-16T03:17:46.882Z,96692.03
2023-03-16T03:20:17.743Z,96700.84
2023-03-16T03:22:47.758Z,96691.44
2023-03-16T03:25:18.407Z,96695.38
2023-03-16T03:27:47.998Z,96689.88
2023-03-16T03:30:18.966Z,96687.84
2023-03-16T03:32:47.479Z,96694.66
2023-03-16T03:35:17.282Z,96692.66
2023-03-16T03:37:45.843Z,96694.41
2023-03-16T03:40:15.987Z,96684.28
2023-03-16T03:42:44.628Z,96677.47
2023-03-16T03:45:13.874Z,96685.25
2023-03-16T03:47:42.505Z,96690.59
2023-03-16T03:50:12.116Z,96684.88
2023-03-16T03:52:42.063Z,96681.53
2023-03-16T03:55:11.101Z,96682.59
2023-03-16T03:57:39.455Z,96680.22
2023-03-16T04:00:11.459Z,96676.06
2023-03-16T04:02:40.137Z,96675.56
2023-03-16T04:05:09.632Z,96681.03
2023-03-16T04:07:38.598Z,96682.22
2023-03-16T04:10:09.587Z,96678.78
2023-03-16T04:12:37.852Z,96681.63
2023-03-16T04:15:06.908Z,96679.13
2023-03-16T04:17:35.227Z,96678.53
2023-03-16T04:20:05.380Z,96682.44
2023-03-16T04:22:34.005Z,96678.97
2023-03-16T04:25:03.953Z,96682.88
2023-03-16T04:27:36.465Z,96688.25
2023-03-16T04:30:06.547Z,96694.78
2023-03-16T04:32:35.191Z,96701.00
2023-03-16T04:35:03.462Z,96702.50
2023-03-16T04:37:31.783Z,96701.19
2023-03-16T04:40:00.066Z,96696.53
2023-03-16T04:42:28.337Z,96695.22
2023-03-16T04:44:57.964Z,96685.09
2023-03-16T04:47:27.255Z,96683.34
2023-03-16T04:49:55.865Z,96690.78
2023-03-16T04:52:24.177Z,96694.38
2023-03-16T04:54:52.680Z,96688.22
2023-03-16T04:57:20.908Z,96684.53
2023-03-16T04:59:49.180Z,96687.06
2023-03-16T05:02:19.986Z,96679.91
2023-03-16T05:04:48.735Z,96683.16
2023-03-16T05:07:16.991Z,96678.31
2023-03-16T05:09:45.400Z,96667.47
2023-03-16T05:12:13.721Z,96670.09
2023-03-16T05:14:41.946Z,96674.13
2023-03-16T05:17:10.418Z,96671.19
2023-03-16T05:19:40.301Z,96667.47
2023-03-16T05:22:08.686Z,96667.13
2023-03-16T05:24:37.477Z,96663.19
2023-03-16T05:27:06.007Z,96664.16
2023-03-16T05:29:34.414Z,96653.22
2023-03-16T05:32:02.748Z,96661.34
2023-03-16T05:34:31.661Z,96661.72
2023-03-16T05:37:01.261Z,96657.13
2023-03-16T05:39:30.909Z,96664.53
2023-03-16T05:41:59.488Z,96662.13
2023-03-16T05:44:28.071Z,96653.31
2023-03-16T05:46:56.346Z,96655.59
2023-03-16T05:49:24.716Z,96654.41
2023-03-16T05:51:52.974Z,96645.59
2023-03-16T05:54:22.548Z,96641.56
2023-03-16T05:56:50.750Z,96655.16
2023-03-16T05:59:18.989Z,96658.59
2023-03-16T06:01:47.194Z,96650.47
2023-03-16T06:04:15.686Z,96656.44
2023-03-16T06:06:43.930Z,96655.75
2023-03-16T06:09:12.210Z,96656.59
2023-03-16T06:11:41.808Z,96657.09
2023-03-16T06:14:10.031Z,96661.50
2023-03-16T06:16:38.372Z,96661.50
2023-03-16T06:19:06.758Z,96658.88
2023-03-16T06:21:35.056Z,96656.47
2023-03-16T06:24:03.421Z,96657.88
2023-03-16T06:26:31.739Z,96655.69
2023-03-16T06:29:01.402Z,96664.16
2023-03-16T06:31:29.730Z,96665.28
2023-03-16T06:33:57.981Z,96666.66
2023-03-16T06:36:26.267Z,96669.03
2023-03-16T06:38:54.560Z,96669.16
2023-03-16T06:41:22.810Z,96666.44
2023-03-16T06:43:51.059Z,96666.91
2023-03-16T06:46:21.310Z,96668.69
2023-03-16T06:48:49.650Z,96672.06
2023-03-16T06:51:18.157Z,96667.97
2023-03-16T06:53:46.396Z,96669.16
2023-03-16T06:56:14.662Z,96661.41
2023-03-16T06:58:42.978Z,96665.75
2023-03-16T07:01:12.603Z,96661.34
2023-03-16T07:03:42.258Z,96649.72
2023-03-16T07:06:10.685Z,96655.53
2023-03-16T07:08:38.935Z,96651.78
2023-03-16T07:11:07.167Z,96660.13
2023-03-16T07:13:35.783Z,96656.97
2023-03-16T07:16:04.905Z,96651.28
2023-03-16T07:18:33.502Z,96654.31
2023-03-16T07:21:03.389Z,96656.03
2023-03-16T07:23:32.373Z,96659.50
2023-03-16T07:26:00.774Z,96655.50
2023-03-16T07:28:29.675Z,96651.88
2023-03-16T07:31:03.937Z,96651.00
2023-03-16T07:33:33.241Z,96649.09
2023-03-16T07:36:05.722Z,96658.09
2023-03-16T07:38:34.424Z,96660.03
2023-03-16T07:41:02.671Z,96660.97
2023-03-16T07:43:30.932Z,96656.63
2023-03-16T07:45:59.839Z,96663.94
2023-03-16T07:48:28.560Z,96660.72
2023-03-16T07:50:56.824Z,96656.03
2023-03-16T07:53:26.485Z,96658.59
2023-03-16T07:55:54.733Z,96669.38
2023-03-16T07:58:22.979Z,96665.56
2023-03-16T08:00:51.275Z,96675.63
2023-03-16T08:03:19.584Z,96674.66
2023-03-16T08:05:47.910Z,96678.56
2023-03-16T08:08:16.225Z,96672.03
2023-03-16T08:10:49.055Z,96689.84
2023-03-16T08:13:17.672Z,96683.38
2023-03-16T08:15:47.940Z,96679.56
2023-03-16T08:18:16.332Z,96699.00
2023-03-16T08:20:44.880Z,96682.78
2023-03-16T08:23:15.573Z,96680.56
2023-03-16T08:25:46.198Z,96693.13
2023-03-16T08:28:15.788Z,96690.16
2023-03-16T08:30:48.139Z,96690.25
2023-03-16T08:33:17.928Z,96688.47
2023-03-16T08:35:46.517Z,96682.59
2023-03-16T08:38:16.039Z,96683.91
2023-03-16T08:40:48.623Z,96675.13
2023-03-16T08:43:17.356Z,96680.41
2023-03-16T08:45:46.356Z,96682.25
2023-03-16T08:48:14.900Z,96672.69
2023-03-16T08:50:44.296Z,96685.25
2023-03-16T08:53:14.507Z,96678.88
2023-03-16T08:55:43.036Z,96676.19
2023-03-16T08:58:14.043Z,96666.41
2023-03-16T09:00:43.897Z,96667.88
2023-03-16T09:03:13.744Z,96666.03
2023-03-16T09:05:42.459Z,96665.06
2023-03-16T09:08:10.706Z,96658.28
2023-03-16T09:10:39.009Z,96657.28
2023-03-16T09:13:07.460Z,96658.06
2023-03-16T09:15:37.589Z,96647.53
2023-03-16T09:18:06.502Z,96651.16
2023-03-16T09:20:34.946Z,96650.69
2023-03-16T09:23:03.615Z,96661.44
2023-03-16T09:25:32.435Z,96663.50
2023-03-16T09:28:01.121Z,96656.03
2023-03-16T09:30:29.767Z,96660.81
2023-03-16T09:32:59.633Z,96656.88
2023-03-16T09:35:28.287Z,96653.22
2023-03-16T09:38:06.190Z,96656.09
2023-03-16T09:40:36.053Z,96667.28
2023-03-16T09:43:26.247Z,96666.75
2023-03-16T09:46:03.346Z,96659.53
2023-03-16T09:48:35.547Z,96668.75
2023-03-16T09:51:07.821Z,96659.69
2023-03-16T09:53:38.457Z,96651.00
2023-03-16T09:56:08.373Z,96658.00
2023-03-16T09:58:36.651Z,96655.06
2023-03-16T10:01:11.305Z,96651.06
2023-03-16T10:04:00.588Z,96661.13
2023-03-16T10:06:29.460Z,96657.56
2023-03-16T10:09:07.025Z,96660.81
2023-03-16T10:11:37.163Z,96661.03
2023-03-16T10:14:14.135Z,96667.56
2023-03-16T10:16:47.603Z,96657.59
2023-03-16T10:19:20.734Z,96659.38
2023-03-16T10:21:50.377Z,96652.47
2023-03-16T10:24:27.181Z,96652.88
2023-03-16T10:27:00.217Z,96661.88
2023-03-16T10:29:31.841Z,96652.66
2023-03-16T10:32:02.348Z,96656.47
2023-03-16T10:34:32.299Z,96646.09
2023-03-16T10:37:02.980Z,96658.53
2023-03-16T10:39:36.572Z,96652.16
2023-03-16T10:42:04.893Z,96645.06
2023-03-16T10:44:33.549Z,96636.03
2023-03-16T10:47:04.845Z,96634.47
2023-03-16T10:49:41.846Z,96631.97
2023-03-16T10:52:16.148Z,96620.28
2023-03-16T10:54:50.795Z,96628.09
2023-03-16T10:57:25.564Z,96624.81
2023-03-16T10:59:55.080Z,96617.38
2023-03-16T11:02:27.762Z,96615.22
2023-03-16T11:04:57.613Z,96614.53
2023-03-16T11:07:26.780Z,96605.06
2023-03-16T11:09:57.800Z,96596.81
2023-03-16T11:12:28.820Z,96602.88
2023-03-16T11:15:07.491Z,96594.16
2023-03-16T11:17:39.879Z,96596.00
2023-03-16T11:20:17.382Z,96597.13
2023-03-16T11:22:47.250Z,96591.31
2023-03-16T11:25:20.427Z,96585.00
2023-03-16T11:30:27.075Z,96580.22
2023-03-16T11:32:55.828Z,96570.16
2023-03-16T11:35:30.951Z,96570.03
2023-03-16T11:38:11.068Z,96565.25
2023-03-16T11:40:47.426Z,96578.41
2023-03-16T11:43:37.068Z,96559.31
2023-03-16T11:46:11.699Z,96562.94
2023-03-16T11:48:41.683Z,96562.31
2023-03-16T11:51:16.720Z,96554.63
2023-03-16T11:54:00.967Z,96550.16
2023-03-16T11:56:34.506Z,96547.16
2023-03-16T11:59:24.917Z,96553.88
2023-03-16T12:02:02.731Z,96547.78
2023-03-16T12:04:46.515Z,96552.34
2023-03-16T12:07:26.907Z,96540.97
2023-03-16T12:10:10.816Z,96539.56
2023-03-16T12:12:49.071Z,96538.34
2023-03-16T12:15:38.424Z,96530.75
2023-03-16T12:18:15.390Z,96520.31
2023-03-16T12:20:48.607Z,96517.22
2023-03-16T12:23:22.857Z,96515.88
2023-03-16T12:25:51.681Z,96506.56
2023-03-16T12:28:24.923Z,96503.13
2023-03-16T12:31:12.201Z,96499.47
2023-03-16T12:34:04.170Z,96490.31
2023-03-16T12:36:53.041Z,96493.38
2023-03-16T12:39:30.474Z,96495.47
2023-03-16T12:42:06.229Z,96501.69
2023-03-16T12:44:37.949Z,96490.31
2023-03-16T12:47:12.408Z,96483.66
2023-03-16T12:49:41.772Z,96487.19
2023-03-16T12:52:12.612Z,96488.84
2023-03-16T12:54:52.982Z,96485.66
2023-03-16T12:57:25.898Z,96474.06
2023-03-16T12:59:58.352Z,96468.94
2023-03-16T13:02:30.046Z,96472.00
2023-03-16T13:05:00.332Z,96472.22
2023-03-16T13:07:31.165Z,96471.50
2023-03-16T13:10:08.197Z,96478.16
2023-03-16T13:12:38.347Z,96473.97
2023-03-16T13:15:26.177Z,96460.34
2023-03-16T13:18:06.545Z,96457.66
2023-03-16T13:20:36.206Z,96459.91
2023-03-16T13:23:22.083Z,96463.28
2023-03-16T13:26:06.798Z,96459.44
2023-03-16T13:28:37.611Z,96458.16
2023-03-16T13:31:06.836Z,96458.75
2023-03-16T13:33:36.972Z,96451.38
2023-03-16T13:36:07.287Z,96452.81
2023-03-16T13:38:36.238Z,96455.50
2023-03-16T13:41:10.771Z,96448.16
2023-03-16T13:43:40.700Z,96451.34
2023-03-16T13:46:15.928Z,96452.16
2023-03-16T13:48:44.532Z,96441.63
2023-03-16T13:51:16.393Z,96440.19
2023-03-16T13:53:45.697Z,96442.09
2023-03-16T13:56:16.815Z,96439.69
2023-03-16T13:58:47.278Z,96437.59
2023-03-16T14:01:21.451Z,96430.22
2023-03-16T14:03:50.437Z,96426.50
2023-03-16T14:06:23.378Z,96430.13
2023-03-16T14:08:53.451Z,96417.47
2023-03-16T14:11:23.052Z,96418.75
2023-03-16T14:13:54.324Z,96425.75
2023-03-16T14:16:25.333Z,96420.41
2023-03-16T14:18:55.901Z,96413.84
2023-03-16T14:21:25.574Z,96409.69
2023-03-16T14:23:55.136Z,96424.47
2023-03-16T14:26:25.114Z,96422.19
2023-03-16T14:28:58.841Z,96423.00
2023-03-16T14:31:35.800Z,96425.38
2023-03-16T14:34:05.793Z,96435.19
2023-03-16T14:36:38.283Z,96431.97
2023-03-16T14:39:14.107Z,96432.72
2023-03-16T14:41:43.984Z,96426.41
2023-03-16T14:44:21.121Z,96418.25
2023-03-16T14:46:49.786Z,96413.28
2023-03-16T14:49:22.051Z,96418.47
2023-03-16T14:51:52.666Z,96400.31
2023-03-16T14:54:22.293Z,96407.00
2023-03-16T14:56:53.129Z,96395.34
2023-03-16T14:59:21.770Z,96398.63
2023-03-16T15:01:51.179Z,96396.56
2023-03-16T15:04:23.664Z,96401.72
2023-03-16T15:06:51.934Z,96400.69
2023-03-16T15:09:31.383Z,96402.28
2023-03-16T15:12:01.093Z,96402.66
2023-03-16T15:14:46.977Z,96390.63
2023-03-16T15:17:15.258Z,96399.91
2023-03-16T15:19:43.570Z,96401.53
2023-03-16T15:22:13.523Z,96389.88
2023-03-16T15:24:41.861Z,96386.09
2023-03-16T15:27:19.933Z,96394.72
2023-03-16T15:29:48.205Z,96388.38
2023-03-16T15:32:16.910Z,96393.81
2023-03-16T15:34:46.487Z,96390.25
2023-03-16T15:37:16.145Z,96395.84
2023-03-16T15:39:46.194Z,96394.34
2023-03-16T15:42:17.706Z,96381.16
2023-03-16T15:44:46.701Z,96378.78
2023-03-16T15:47:15.447Z,96376.25
2023-03-16T15:49:47.758Z,96371.34
2023-03-16T15:52:23.732Z,96365.38
2023-03-16T15:54:52.207Z,96362.69
2023-03-16T15:57:21.901Z,96361.53
2023-03-16T15:59:50.727Z,96348.44
2023-03-16T16:02:28.713Z,96353.44
2023-03-16T16:04:57.392Z,96335.84
2023-03-16T16:07:26.866Z,96343.13
2023-03-16T16:09:55.348Z,96332.19
2023-03-16T16:12:27.247Z,96339.44
2023-03-16T16:14:56.982Z,96334.53
2023-03-16T16:17:42.578Z,96333.16
2023-03-16T16:20:22.819Z,96333.06
2023-03-16T16:22:52.755Z,96331.50
2023-03-16T16:25:23.204Z,96338.06
2023-03-16T16:27:53.228Z,96334.88
2023-03-16T16:30:23.744Z,96334.16
2023-03-16T16:32:52.598Z,96338.81
2023-03-16T16:35:22.529Z,96341.50
2023-03-16T16:37:51.291Z,96350.97
2023-03-16T16:40:21.951Z,96343.16
2023-03-16T16:42:50.650Z,96347.47
2023-03-16T16:45:21.858Z,96346.28
2023-03-16T16:47:52.299Z,96353.03
2023-03-16T16:50:22.751Z,96357.91
2023-03-16T16:52:51.644Z,96364.28
2023-03-16T16:55:20.333Z,96372.50
2023-03-16T16:57:49.801Z,96380.69
2023-03-16T17:00:24.710Z,96375.63
2023-03-16T17:02:54.215Z,96377.13
2023-03-16T17:05:24.631Z,96385.88
2023-03-16T17:07:53.177Z,96386.44
2023-03-16T17:10:23.435Z,96383.41
2023-03-16T17:12:52.165Z,96377.88
2023-03-16T17:15:24.750Z,96387.91
2023-03-16T17:17:54.755Z,96389.19
2023-03-16T17:20:25.835Z,96391.31
2023-03-16T17:22:55.718Z,96385.13
2023-03-16T17:25:24.626Z,96389.88
2023-03-16T17:27:54.945Z,96390.44
2023-03-16T17:30:27.520Z,96398.81
2023-03-16T17:33:00.071Z,96394.13
2023-03-16T17:35:28.722Z,96395.97
2023-03-16T17:37:57.121Z,96389.31
2023-03-16T17:40:26.255Z,96388.22
2023-03-16T17:42:56.063Z,96391.28
2023-03-16T17:45:28.445Z,96396.00
2023-03-16T17:47:57.097Z,96390.66
2023-03-16T17:50:29.074Z,96384.41
2023-03-16T17:52:57.501Z,96377.38
2023-03-16T17:55:25.871Z,96381.16
2023-03-16T17:57:55.262Z,96383.81
2023-03-16T18:00:31.738Z,96394.19
2023-03-16T18:03:02.027Z,96384.81
2023-03-16T18:05:32.254Z,96382.25
2023-03-16T18:08:04.885Z,96371.56
2023-03-16T18:10:34.030Z,96370.47
2023-03-16T18:13:04.811Z,96375.19
2023-03-16T18:15:36.558Z,96366.56
2023-03-16T18:18:07.208Z,96378.03
2023-03-16T18:20:36.667Z,96378.19
2023-03-16T18:23:16.178Z,96370.03
2023-03-16T18:25:45.765Z,96366.41
2023-03-16T18:28:14.916Z,96373.25
2023-03-16T18:30:47.382Z,96377.09
2023-03-16T18:33:23.556Z,96375.88
2023-03-16T18:35:53.061Z,96375.34
2023-03-16T18:38:28.931Z,96383.84
2023-03-16T18:40:57.423Z,96373.28
2023-03-16T18:43:27.308Z,96370.63
2023-03-16T18:45:57.183Z,96367.28
2023-03-16T18:48:28.763Z,96368.44
2023-03-16T18:50:57.088Z,96368.34
2023-03-16T18:53:25.485Z,96362.97
2023-03-16T18:55:55.661Z,96367.38
2023-03-16T18:58:25.745Z,96362.31
2023-03-16T19:00:57.859Z,96360.38
2023-03-16T19:03:28.587Z,96359.34
2023-03-16T19:05:57.028Z,96362.53
2023-03-16T19:08:25.796Z,96360.53
2023-03-16T19:10:56.467Z,96363.81
2023-03-16T19:13:24.927Z,96363.81
2023-03-16T19:15:54.754Z,96371.63
2023-03-16T19:18:25.998Z,96373.47
2023-03-16T19:20:55.212Z,96371.31
2023-03-16T19:23:26.526Z,96372.78
2023-03-16T19:25:55.952Z,96382.09
2023-03-16T19:28:29.120Z,96372.19
2023-03-16T19:30:57.804Z,96371.88
2023-03-16T19:33:28.571Z,96372.00
2023-03-16T19:35:57.830Z,96372.34
2023-03-16T19:38:26.681Z,96364.06
2023-03-16T19:40:56.640Z,96358.44
2023-03-16T19:43:25.339Z,96367.03
2023-03-16T19:45:54.990Z,96365.88
2023-03-16T19:48:31.630Z,96363.09
2023-03-16T19:51:00.269Z,96369.53
2023-03-16T19:53:28.573Z,96366.41
2023-03-16T19:55:56.879Z,96365.25
2023-03-16T19:58:31.388Z,96367.38
2023-03-16T20:01:01.146Z,96370.72
2023-03-16T20:03:33.871Z,96365.41
2023-03-16T20:06:02.563Z,96365.41
2023-03-16T20:08:31.036Z,96357.94
2023-03-16T20:11:03.682Z,96362.44
2023-03-16T20:13:32.339Z,96356.66
2023-03-16T20:16:00.596Z,96343.56
2023-03-16T20:18:30.364Z,96351.66
2023-03-16T20:20:58.952Z,96347.22
2023-03-16T20:23:29.351Z,96346.19
2023-03-16T20:26:01.985Z,96344.22
2023-03-16T20:28:34.167Z,96346.53
2023-03-16T20:31:02.636Z,96343.72
2023-03-16T20:33:33.276Z,96347.19
2023-03-16T20:36:01.838Z,96347.84
2023-03-16T20:38:30.098Z,96341.72
2023-03-16T20:40:58.660Z,96336.59
2023-03-16T20:43:28.262Z,96340.75
2023-03-16T20:45:58.096Z,96335.78
2023-03-16T20:48:27.486Z,96340.91
2023-03-16T20:51:00.011Z,96336.28
2023-03-16T20:53:28.622Z,96348.03
2023-03-16T20:55:57.471Z,96345.38
2023-03-16T20:58:27.936Z,96343.22
2023-03-16T21:00:57.707Z,96344.56
2023-03-16T21:03:27.632Z,96341.53
2023-03-16T21:05:59.967Z,96338.59
2023-03-16T21:08:28.679Z,96342.00
2023-03-16T21:10:59.750Z,96343.66
2023-03-16T21:13:31.540Z,96336.03
2023-03-16T21:16:01.541Z,96331.25
2023-03-16T21:18:30.529Z,96336.84
2023-03-16T21:21:00.478Z,96328.59
2023-03-16T21:23:28.750Z,96329.88
2023-03-16T21:25:58.719Z,96331.06
2023-03-16T21:28:28.849Z,96324.81
2023-03-16T21:31:00.176Z,96326.63
2023-03-16T21:33:31.109Z,96331.59
2023-03-16T21:36:02.043Z,96329.09
2023-03-16T21:38:31.770Z,96328.94
2023-03-16T21:41:00.582Z,96325.13
2023-03-16T21:43:28.925Z,96332.88
2023-03-16T21:45:58.098Z,96329.09
2023-03-16T21:48:30.312Z,96321.44
2023-03-16T21:51:00.684Z,96318.63
2023-03-16T21:53:31.006Z,96301.59
2023-03-16T21:56:00.168Z,96299.75
2023-03-16T21:58:28.524Z,96307.88
2023-03-16T22:00:58.256Z,96301.91
2023-03-16T22:03:32.937Z,96309.97
2023-03-16T22:06:13.467Z,96312.59
2023-03-16T22:08:41.977Z,96311.28
2023-03-16T22:11:16.638Z,96303.41
2023-03-16T22:13:45.034Z,96311.72
2023-03-16T22:16:15.366Z,96311.16
2023-03-16T22:18:44.574Z,96312.66
2023-03-16T22:21:23.551Z,96311.00
2023-03-16T22:23:51.910Z,96314.88
2023-03-16T22:26:22.398Z,96308.16
2023-03-16T22:28:52.436Z,96305.72
2023-03-16T22:31:22.475Z,96303.72
2023-03-16T22:33:51.185Z,96304.53
2023-03-16T22:36:22.816Z,96306.25
2023-03-16T22:38:56.948Z,96309.75
2023-03-16T22:41:25.392Z,96301.47
2023-03-16T22:43:54.199Z,96310.84
2023-03-16T22:46:24.500Z,96301.78
2023-03-16T22:48:53.662Z,96312.50
2023-03-16T22:51:26.858Z,96311.91
2023-03-16T22:53:56.368Z,96307.91
2023-03-16T22:56:25.435Z,96313.38
2023-03-16T22:58:55.981Z,96305.22
2023-03-16T23:01:28.172Z,96304.81
2023-03-16T23:03:56.553Z,96302.06
2023-03-16T23:06:27.478Z,96303.41
2023-03-16T23:08:56.683Z,96303.25
2023-03-16T23:11:28.567Z,96303.56
2023-03-16T23:13:57.148Z,96303.56
2023-03-16T23:16:27.806Z,96297.81
2023-03-16T23:18:56.289Z,96297.44
2023-03-16T23:21:27.852Z,96291.72
2023-03-16T23:24:03.522Z,96286.44
2023-03-16T23:26:33.115Z,96286.88
2023-03-16T23:29:01.570Z,96280.25
2023-03-16T23:31:30.739Z,96284.03
2023-03-16T23:33:59.160Z,96292.09
2023-03-16T23:36:28.872Z,96287.97
2023-03-16T23:38:57.083Z,96287.31
2023-03-16T23:41:25.979Z,96291.88
2023-03-16T23:43:54.632Z,96285.28
2023-03-16T23:46:25.736Z,96282.53
2023-03-16T23:48:55.283Z,96289.16
2023-03-16T23:51:25.671Z,96280.34
2023-03-16T23:53:55.389Z,96276.13
2023-03-16T23:56:24.101Z,96281.09
2023-03-16T23:58:52.353Z,96267.97
